Time;durP1;ratioP1;P1;durP2;ratioP2;P2;SDS_P1;SDS_P2;PMS_P1;PMS_P2;Temp;Humidity;BMP_temperature;BMP_pressure;BME280_temperature;BME280_humidity;BME280_pressure;Samples;Min_cycle;Max_cycle;Signal;HPM_P1;HPM_P2
2024/01/19 00:02:05;;;;;;;8.03;4.33;;;;;;;-1.12;100.00;100955.84;10321034;28;20103;-73
2024/01/19 00:07:05;;;;;;;12.00;5.50;;;;;;;-1.20;100.00;100964.00;10317398;28;20038;-73
2024/01/19 00:12:06;;;;;;;6.93;2.87;;;;;;;-1.25;100.00;100974.50;10318916;28;20046;-73
2024/01/19 00:17:06;;;;;;;3.73;1.70;;;;;;;-1.40;100.00;100957.34;10317909;28;20046;-73
2024/01/19 00:22:06;;;;;;;4.47;2.20;;;;;;;-1.41;100.00;100961.88;10319353;28;20035;-74
2024/01/19 00:27:07;;;;;;;6.60;2.57;;;;;;;-1.47;100.00;100947.25;10325956;28;20045;-73
2024/01/19 00:32:07;;;;;;;6.33;2.30;;;;;;;-1.52;100.00;100955.00;10295832;28;20047;-70
2024/01/19 00:37:08;;;;;;;4.77;1.47;;;;;;;-1.60;100.00;100963.13;10318015;28;20089;-73
2024/01/19 00:42:08;;;;;;;9.93;2.23;;;;;;;-1.62;100.00;100970.56;10305231;28;20038;-73
2024/01/19 00:47:09;;;;;;;7.33;1.90;;;;;;;-1.71;100.00;100955.41;10316777;28;20061;-73
2024/01/19 00:52:09;;;;;;;5.47;1.50;;;;;;;-1.59;100.00;100967.53;10340472;28;20042;-73
2024/01/19 00:57:10;;;;;;;5.50;1.43;;;;;;;-1.33;100.00;100982.63;10320864;28;20176;-73
2024/01/19 01:02:10;;;;;;;2.03;0.80;;;;;;;-1.10;100.00;100969.19;10310683;28;20031;-73
2024/01/19 01:07:10;;;;;;;1.43;0.80;;;;;;;-0.64;100.00;100986.38;10311928;28;20035;-73
2024/01/19 01:12:11;;;;;;;1.60;0.80;;;;;;;-0.42;100.00;101016.31;10320665;28;20038;-73
2024/01/19 01:17:11;;;;;;;4.17;2.80;;;;;;;-0.36;100.00;101036.41;10322553;28;20093;-70
2024/01/19 01:22:13;;;;;;;2.70;1.20;;;;;;;-0.42;100.00;101030.69;10300406;28;21732;-73
2024/01/19 01:27:13;;;;;;;2.73;1.20;;;;;;;-0.51;100.00;101012.00;10309121;28;20114;-73
2024/01/19 01:32:14;;;;;;;1.93;1.30;;;;;;;-0.70;100.00;100994.38;10309840;28;20363;-73
2024/01/19 01:37:14;;;;;;;1.83;1.50;;;;;;;-0.73;100.00;100992.00;10332833;28;20089;-73
2024/01/19 01:42:14;;;;;;;7.70;3.27;;;;;;;-0.68;100.00;101006.69;10323473;28;20045;-73
2024/01/19 01:47:15;;;;;;;5.73;4.77;;;;;;;-0.79;100.00;101019.75;10312042;28;20050;-73
2024/01/19 01:52:16;;;;;;;7.70;4.93;;;;;;;-0.91;100.00;101011.16;10303218;28;20062;-73
2024/01/19 01:57:17;;;;;;;7.37;3.37;;;;;;;-1.12;100.00;101020.69;10323973;28;20090;-73
2024/01/19 02:02:17;;;;;;;2.50;1.70;;;;;;;-1.22;100.00;101017.34;10306325;28;20506;-73
2024/01/19 02:07:18;;;;;;;2.50;1.80;;;;;;;-1.27;100.00;101044.06;10318645;28;20048;-73
2024/01/19 02:12:18;;;;;;;3.33;2.30;;;;;;;-1.32;100.00;101057.25;10310537;28;20050;-72
2024/01/19 02:17:19;;;;;;;4.30;2.37;;;;;;;-1.42;100.00;101052.88;10321703;28;20097;-73
2024/01/19 02:22:20;;;;;;;5.97;2.80;;;;;;;-1.47;100.00;101070.59;10300773;28;20034;-73
2024/01/19 02:27:20;;;;;;;3.03;2.73;;;;;;;-1.45;100.00;101082.94;10309324;28;20041;-73
2024/01/19 02:32:21;;;;;;;4.67;2.67;;;;;;;-1.32;100.00;101089.66;10317833;28;20050;-73
2024/01/19 02:37:23;;;;;;;4.53;3.07;;;;;;;-1.24;100.00;101112.09;10321333;28;20043;-73
2024/01/19 02:42:24;;;;;;;14.13;6.22;;;;;;;-1.08;100.00;101118.47;10318154;28;20046;-73
2024/01/19 02:47:28;;;;;;;19.87;6.63;;;;;;;-0.99;100.00;101113.88;10318867;28;20078;-73
2024/01/19 02:52:28;;;;;;;8.10;3.50;;;;;;;-1.13;100.00;101070.38;10316186;28;20042;-73
2024/01/19 02:57:28;;;;;;;4.87;4.00;;;;;;;-0.89;100.00;101114.53;10300380;28;20039;-73
2024/01/19 03:02:29;;;;;;;4.47;3.70;;;;;;;-0.90;100.00;101118.28;10315959;28;20062;-73
2024/01/19 03:07:29;;;;;;;4.40;4.00;;;;;;;-1.04;100.00;101117.94;10296241;28;20110;-73
2024/01/19 03:12:30;;;;;;;8.90;3.93;;;;;;;-1.23;100.00;101112.94;10305870;28;20046;-74
2024/01/19 03:17:32;;;;;;;9.17;5.07;;;;;;;-1.37;100.00;101113.63;10296680;28;20066;-73
2024/01/19 03:22:33;;;;;;;12.13;6.53;;;;;;;-1.53;100.00;101120.75;10302864;28;20046;-73
2024/01/19 03:27:33;;;;;;;14.93;8.00;;;;;;;-1.77;100.00;101105.38;10295621;28;20039;-73
2024/01/19 03:32:34;;;;;;;13.50;10.77;;;;;;;-1.72;100.00;101137.25;10310810;28;20042;-73
2024/01/19 03:37:34;;;;;;;20.87;11.50;;;;;;;-1.80;100.00;101137.25;10293725;28;20053;-73
2024/01/19 03:42:35;;;;;;;19.17;11.67;;;;;;;-1.89;100.00;101137.22;10294737;28;20046;-72
2024/01/19 03:47:36;;;;;;;23.73;11.53;;;;;;;-1.96;100.00;101135.34;10290812;28;20069;-72
2024/01/19 03:52:37;;;;;;;26.63;11.07;;;;;;;-1.97;100.00;101136.38;10303265;28;20042;-73
2024/01/19 03:57:37;;;;;;;25.90;12.53;;;;;;;-2.05;100.00;101143.47;10302125;28;20045;-73
2024/01/19 04:02:38;;;;;;;24.73;11.70;;;;;;;-2.09;100.00;101143.94;10312395;28;20045;-73
2024/01/19 04:07:38;;;;;;;20.93;14.17;;;;;;;-2.06;100.00;101147.16;10321428;28;20034;-72
2024/01/19 04:12:39;;;;;;;23.63;13.37;;;;;;;-1.93;100.00;101160.16;10322056;28;20046;-73
2024/01/19 04:17:39;;;;;;;11.67;6.53;;;;;;;-1.77;100.00;101161.22;10312436;28;20046;-73
2024/01/19 04:22:40;;;;;;;16.87;8.93;;;;;;;-1.87;100.00;101167.59;10320826;28;20053;-73
2024/01/19 04:27:41;;;;;;;20.13;10.53;;;;;;;-1.98;100.00;101181.41;10329848;28;20108;-73
2024/01/19 04:32:41;;;;;;;13.97;5.90;;;;;;;-2.03;100.00;101167.53;10287243;28;20083;-73
2024/01/19 04:37:42;;;;;;;8.20;5.40;;;;;;;-1.89;100.00;101185.81;10326633;28;20034;-73
2024/01/19 04:42:42;;;;;;;3.93;3.57;;;;;;;-2.05;100.00;101150.69;10324450;28;20039;-72
2024/01/19 04:47:43;;;;;;;6.53;4.27;;;;;;;-1.73;100.00;101189.56;10309619;28;20030;-73
2024/01/19 04:52:43;;;;;;;9.27;4.70;;;;;;;-1.73;100.00;101194.97;10317218;28;20042;-72
2024/01/19 04:57:44;;;;;;;7.17;4.07;;;;;;;-1.86;100.00;101201.69;10321040;28;20119;-73
2024/01/19 05:02:45;;;;;;;4.03;3.57;;;;;;;-1.87;100.00;101210.78;10306888;28;20102;-72
2024/01/19 05:07:45;;;;;;;36.90;14.00;;;;;;;-1.96;100.00;101221.69;10311901;28;20058;-73
2024/01/19 05:12:46;;;;;;;66.63;37.27;;;;;;;-1.99;100.00;101230.97;10335104;28;20050;-72
2024/01/19 05:17:46;;;;;;;65.03;38.83;;;;;;;-1.89;100.00;101247.88;10303320;28;20050;-73
2024/01/19 05:22:47;;;;;;;82.30;40.30;;;;;;;-2.00;100.00;101242.78;10324454;28;20082;-72
2024/01/19 05:27:51;;;;;;;79.77;41.90;;;;;;;-1.98;100.00;101259.66;10312366;28;20035;-71
2024/01/19 05:32:51;;;;;;;59.80;31.83;;;;;;;-2.04;100.00;101257.59;10308646;28;20046;-71
2024/01/19 05:37:52;;;;;;;38.57;21.40;;;;;;;-2.12;100.00;101276.47;10309141;28;20418;-72
2024/01/19 05:42:52;;;;;;;11.03;7.33;;;;;;;-2.13;100.00;101285.53;10309310;28;20453;-72
2024/01/19 05:47:52;;;;;;;5.07;3.30;;;;;;;-2.31;100.00;101296.41;10321259;28;20047;-72
2024/01/19 05:52:53;;;;;;;4.47;3.27;;;;;;;-2.24;100.00;101305.56;10324623;28;20042;-73
2024/01/19 05:57:54;;;;;;;11.53;6.00;;;;;;;-2.30;100.00;101322.38;10316894;28;20043;-72
2024/01/19 06:02:54;;;;;;;15.63;10.53;;;;;;;-2.34;100.00;101321.00;10318540;28;20038;-72
2024/01/19 06:07:55;;;;;;;34.07;22.07;;;;;;;-2.31;100.00;101343.09;10318318;28;20301;-72
2024/01/19 06:12:55;;;;;;;37.03;23.37;;;;;;;-2.36;100.00;101329.22;10313461;28;20031;-72
2024/01/19 06:17:56;;;;;;;34.57;21.23;;;;;;;-2.37;100.00;101330.25;10320864;28;20038;-73
2024/01/19 06:22:56;;;;;;;31.40;20.10;;;;;;;-2.42;100.00;101346.03;10297739;28;20062;-72
2024/01/19 06:27:57;;;;;;;57.67;32.67;;;;;;;-2.41;100.00;101361.25;10319135;28;20042;-72
2024/01/19 06:32:57;;;;;;;70.07;38.50;;;;;;;-2.47;100.00;101351.06;10321886;28;20046;-72
2024/01/19 06:37:58;;;;;;;73.77;43.17;;;;;;;-2.47;100.00;101372.66;10291158;28;20039;-71
2024/01/19 06:42:58;;;;;;;52.77;30.90;;;;;;;-2.48;100.00;101379.03;10326075;28;20042;-72
2024/01/19 06:47:59;;;;;;;32.27;17.73;;;;;;;-2.57;100.00;101388.91;10317077;28;20042;-73
2024/01/19 06:53:00;;;;;;;15.77;8.53;;;;;;;-2.60;100.00;101407.22;10323250;28;20042;-72
2024/01/19 06:58:01;;;;;;;7.50;4.50;;;;;;;-2.63;100.00;101419.19;10317982;28;20090;-72
2024/01/19 07:03:01;;;;;;;10.67;3.40;;;;;;;-2.84;100.00;101396.06;10312885;28;21036;-72
2024/01/19 07:08:02;;;;;;;12.70;7.03;;;;;;;-2.69;100.00;101417.97;10307405;28;20066;-73
2024/01/19 07:13:03;;;;;;;21.57;7.03;;;;;;;-2.66;100.00;101425.72;10307737;28;20046;-73
2024/01/19 07:18:03;;;;;;;15.43;5.23;;;;;;;-2.91;100.00;101397.72;10319232;28;20106;-73
2024/01/19 07:23:04;;;;;;;12.57;4.23;;;;;;;-2.78;100.00;101435.03;10315083;28;20131;-72
2024/01/19 07:28:05;;;;;;;8.13;3.73;;;;;;;-2.88;100.00;101442.34;10317348;28;20050;-72
2024/01/19 07:33:05;;;;;;;6.23;3.93;;;;;;;-2.94;100.00;101448.34;10318776;28;20052;-72
2024/01/19 07:38:06;;;;;;;4.90;3.87;;;;;;;-2.90;100.00;101465.91;10315563;28;20039;-72
2024/01/19 07:43:06;;;;;;;10.40;4.33;;;;;;;-2.78;100.00;101459.31;10321249;28;20034;-72
2024/01/19 07:48:06;;;;;;;9.13;4.43;;;;;;;-2.68;100.00;101470.84;10311012;28;20078;-73
2024/01/19 07:53:07;;;;;;;6.73;4.03;;;;;;;-2.63;100.00;101475.78;10308660;28;20039;-73
2024/01/19 07:58:08;;;;;;;17.80;3.73;;;;;;;-2.58;100.00;101488.78;10321973;28;20066;-73
2024/01/19 08:03:08;;;;;;;3.33;3.03;;;;;;;-2.69;100.00;101471.88;10313064;28;20085;-73
2024/01/19 08:08:08;;;;;;;4.83;3.00;;;;;;;-2.67;100.00;101488.75;10307016;28;20042;-73
2024/01/19 08:13:09;;;;;;;7.87;3.67;;;;;;;-2.45;100.00;101502.75;10319408;28;20065;-73
2024/01/19 08:18:09;;;;;;;12.20;4.00;;;;;;;-2.29;100.00;101502.06;10301512;28;20047;-72
2024/01/19 08:23:10;;;;;;;5.50;3.50;;;;;;;-2.28;100.00;101515.38;10320987;28;20057;-73
2024/01/19 08:28:10;;;;;;;15.63;4.10;;;;;;;-2.19;100.00;101520.84;10321796;28;20038;-72
2024/01/19 08:33:12;;;;;;;9.03;3.73;;;;;;;-2.09;100.00;101532.41;10304337;28;20478;-72
2024/01/19 08:38:13;;;;;;;13.47;4.40;;;;;;;-1.99;100.00;101522.38;10309282;28;20039;-72
2024/01/19 08:43:14;;;;;;;14.97;4.87;;;;;;;-1.76;100.00;101540.78;10310662;28;20042;-72
2024/01/19 08:48:15;;;;;;;11.53;4.10;;;;;;;-1.62;100.00;101529.41;10318961;28;20038;-72
2024/01/19 08:53:16;;;;;;;8.17;3.50;;;;;;;-1.63;100.00;101525.03;10300039;28;20042;-73
2024/01/19 08:58:16;;;;;;;10.33;3.37;;;;;;;-1.72;100.00;101528.66;10326914;28;20043;-72
2024/01/19 09:03:17;;;;;;;20.67;5.33;;;;;;;-1.72;100.00;101534.91;10322602;28;20045;-72
2024/01/19 09:08:17;;;;;;;8.37;3.17;;;;;;;-1.79;100.00;101520.34;10316945;28;20043;-72
2024/01/19 09:13:18;;;;;;;6.90;3.00;;;;;;;-1.71;100.00;101544.72;10304283;28;20050;-71
2024/01/19 09:18:18;;;;;;;15.33;4.13;;;;;;;-1.67;100.00;101546.09;10326223;28;20138;-72
2024/01/19 09:23:19;;;;;;;14.93;4.10;;;;;;;-1.60;100.00;101548.16;10320847;28;20039;-72
2024/01/19 09:28:19;;;;;;;13.63;5.00;;;;;;;-1.52;100.00;101562.56;10324012;28;20070;-71
2024/01/19 09:33:20;;;;;;;15.10;2.50;;;;;;;-1.46;100.00;101553.84;10325010;28;20050;-72
2024/01/19 09:38:20;;;;;;;6.83;2.97;;;;;;;-1.38;100.00;101565.72;10321579;28;20058;-72
2024/01/19 09:43:20;;;;;;;7.97;2.97;;;;;;;-1.40;100.00;101556.91;10314431;28;20626;-72
2024/01/19 09:48:26;;;;;;;3.67;2.00;;;;;;;-1.37;100.00;101570.09;10281787;28;20067;-72
2024/01/19 09:53:27;;;;;;;7.82;2.70;;;;;;;-1.14;100.00;101595.56;10282554;28;20038;-72
2024/01/19 09:58:28;;;;;;;5.13;2.20;;;;;;;-1.03;100.00;101607.97;10306981;28;20146;-72
2024/01/19 10:03:28;;;;;;;11.40;2.63;;;;;;;-0.99;100.00;101603.06;10301348;28;20038;-72
2024/01/19 10:08:29;;;;;;;8.97;4.07;;;;;;;-0.83;100.00;101619.38;10289057;28;20074;-72
2024/01/19 10:13:29;;;;;;;4.03;1.70;;;;;;;-0.75;100.00;101630.22;10310901;28;20061;-72
2024/01/19 10:18:30;;;;;;;9.87;1.60;;;;;;;-0.64;100.00;101629.09;10293461;28;20047;-72
2024/01/19 10:23:30;;;;;;;5.68;2.00;;;;;;;-0.52;100.00;101632.38;10295835;28;20035;-73
2024/01/19 10:28:33;;;;;;;7.73;2.53;;;;;;;-0.37;100.00;101633.47;10308068;28;20042;-69
2024/01/19 10:33:34;;;;;;;14.03;2.03;;;;;;;-0.22;100.00;101644.50;10312941;28;20039;-72
2024/01/19 10:38:34;;;;;;;9.48;1.70;;;;;;;-0.03;100.00;101644.19;10297195;28;20050;-73
2024/01/19 10:43:35;;;;;;;6.60;2.17;;;;;;;0.08;100.00;101640.31;10313858;28;20066;-73
2024/01/19 10:48:35;;;;;;;4.10;1.90;;;;;;;0.20;100.00;101638.13;10305448;28;20042;-72
2024/01/19 10:53:36;;;;;;;14.10;2.80;;;;;;;0.34;100.00;101636.63;10299828;28;20046;-72
2024/01/19 10:58:36;;;;;;;7.97;1.90;;;;;;;0.48;100.00;101643.25;10302713;28;20043;-72
2024/01/19 11:03:37;;;;;;;5.80;2.37;;;;;;;0.66;100.00;101648.50;10305889;28;20309;-72
2024/01/19 11:08:37;;;;;;;7.10;1.70;;;;;;;0.84;100.00;101646.44;10286463;28;20065;-71
2024/01/19 11:13:42;;;;;;;3.50;1.27;;;;;;;0.95;100.00;101654.25;10305530;28;20043;-71
2024/01/19 11:18:43;;;;;;;7.77;2.13;;;;;;;1.03;100.00;101638.97;10320070;28;20034;-71
2024/01/19 11:23:43;;;;;;;6.43;2.00;;;;;;;1.27;100.00;101662.47;10298549;28;20042;-71
2024/01/19 11:29:18;;;;;;;11.38;1.52;;;;;;;1.44;100.00;101665.97;10319649;28;20041;-71
2024/01/19 11:34:50;;;;;;;3.63;1.47;;;;;;;1.63;100.00;101662.84;10312356;28;20074;-70
2024/01/19 11:39:51;;;;;;;8.70;1.37;;;;;;;1.88;100.00;101660.00;10304420;28;20122;-70
2024/01/19 11:44:52;;;;;;;9.70;1.55;;;;;;;1.99;100.00;101656.91;10322286;28;20057;-72
2024/01/19 11:49:52;;;;;;;5.70;1.35;;;;;;;1.96;100.00;101651.81;10294111;28;20046;-71
2024/01/19 11:54:53;;;;;;;3.58;1.70;;;;;;;2.24;100.00;101648.63;10310155;28;20085;-70
2024/01/19 11:59:53;;;;;;;11.93;1.60;;;;;;;2.31;100.00;101649.56;10297355;28;20046;-69
2024/01/19 12:04:54;;;;;;;4.53;1.60;;;;;;;2.46;100.00;101653.22;10316579;28;20042;-70
2024/01/19 12:10:20;;;;;;;8.63;1.98;;;;;;;2.60;100.00;101652.41;10300248;28;20035;-70
2024/01/19 12:15:21;;;;;;;2.97;1.20;;;;;;;2.76;100.00;101654.13;10282233;28;20046;-71
2024/01/19 12:20:23;;;;;;;7.80;2.20;;;;;;;2.85;100.00;101660.34;10307125;28;20047;-71
2024/01/19 12:25:24;;;;;;;7.13;1.67;;;;;;;2.87;100.00;101654.72;10297496;28;20521;-70
2024/01/19 12:30:24;;;;;;;8.95;1.60;;;;;;;2.82;100.00;101658.00;10304966;28;20039;-70
2024/01/19 12:35:25;;;;;;;7.65;2.30;;;;;;;2.81;100.00;101650.84;10320272;28;20042;-71
2024/01/19 12:40:25;;;;;;;6.80;1.80;;;;;;;2.79;100.00;101658.34;10305111;28;20049;-71
2024/01/19 12:45:26;;;;;;;3.22;1.40;;;;;;;2.84;100.00;101650.50;10299633;28;20047;-71
2024/01/19 12:50:30;;;;;;;9.35;1.98;;;;;;;3.02;100.00;101637.41;10310174;28;20038;-71
2024/01/19 12:55:32;;;;;;;6.95;1.83;;;;;;;3.14;100.00;101635.06;10304288;28;20039;-71
2024/01/19 13:00:33;;;;;;;8.98;2.30;;;;;;;3.25;100.00;101647.38;10274539;28;20031;-71
2024/01/19 13:05:34;;;;;;;9.02;1.95;;;;;;;3.52;100.00;101647.75;10309355;28;20565;-71
2024/01/19 13:10:34;;;;;;;7.97;2.03;;;;;;;3.63;100.00;101636.34;10282699;28;20054;-71
2024/01/19 13:15:35;;;;;;;5.78;2.28;;;;;;;4.09;100.00;101638.78;10308481;28;20046;-71
2024/01/19 13:20:35;;;;;;;3.13;1.27;;;;;;;4.29;100.00;101619.09;10299213;28;20049;-70
2024/01/19 13:25:36;;;;;;;12.07;2.15;;;;;;;4.74;100.00;101630.63;10294510;28;20475;-70
2024/01/19 13:30:37;;;;;;;2.47;1.00;;;;;;;4.70;100.00;101630.16;10312115;28;20050;-70
2024/01/19 13:35:37;;;;;;;7.70;1.67;;;;;;;5.07;100.00;101638.22;10327497;28;20061;-71
2024/01/19 13:40:38;;;;;;;13.30;2.05;;;;;;;5.07;100.00;101636.34;10314151;28;20378;-70
2024/01/19 13:45:38;;;;;;;6.07;1.70;;;;;;;4.39;100.00;101638.69;10306501;28;20050;-72
2024/01/19 13:50:39;;;;;;;9.73;3.30;;;;;;;3.70;100.00;101650.91;10315608;28;20049;-70
2024/01/19 13:55:39;;;;;;;8.55;3.28;;;;;;;3.12;100.00;101663.47;10325009;28;20054;-70
2024/01/19 14:00:40;;;;;;;5.40;2.50;;;;;;;2.81;100.00;101650.84;10303801;28;20035;-70
2024/01/19 14:05:40;;;;;;;6.25;2.60;;;;;;;2.93;100.00;101679.28;10312494;28;20169;-70
2024/01/19 14:10:44;;;;;;;8.00;2.50;;;;;;;2.28;100.00;101606.47;10308376;28;20046;-70
2024/01/19 14:15:47;;;;;;;5.57;2.60;;;;;;;2.88;100.00;101689.06;10321425;28;20564;-70
2024/01/19 14:20:49;;;;;;;9.57;2.78;;;;;;;2.74;100.00;101693.41;10306120;28;20043;-70
2024/01/19 14:25:51;;;;;;;9.20;2.83;;;;;;;2.59;100.00;101696.09;10323446;28;20043;-70
2024/01/19 14:30:51;;;;;;;6.30;2.25;;;;;;;2.60;100.00;101704.06;10316089;28;20594;-70
2024/01/19 14:35:52;;;;;;;10.68;1.98;;;;;;;2.55;100.00;101687.44;10313927;28;20414;-69
2024/01/19 14:40:52;;;;;;;3.30;1.80;;;;;;;2.81;100.00;101703.38;10313795;28;20062;-70
2024/01/19 14:45:52;;;;;;;5.10;2.33;;;;;;;2.78;100.00;101702.91;10305781;28;20042;-70
2024/01/19 14:50:53;;;;;;;5.57;2.17;;;;;;;2.32;100.00;101698.31;10302384;28;20049;-69
2024/01/19 14:55:53;;;;;;;7.85;2.70;;;;;;;2.24;100.00;101724.69;10316294;28;20034;-70
2024/01/19 15:00:54;;;;;;;7.22;3.13;;;;;;;2.09;100.00;101730.88;10320840;28;20030;-70
2024/01/19 15:05:56;;;;;;;6.13;2.90;;;;;;;2.00;100.00;101734.63;10303670;28;20038;-68
2024/01/19 15:10:56;;;;;;;9.80;2.53;;;;;;;1.97;100.00;101732.28;10306344;28;20051;-69
2024/01/19 15:15:57;;;;;;;6.43;2.63;;;;;;;1.96;100.00;101749.59;10306996;28;20051;-70
2024/01/19 15:20:57;;;;;;;6.05;3.03;;;;;;;1.95;100.00;101745.19;10321700;28;20046;-71
2024/01/19 15:25:58;;;;;;;7.07;3.60;;;;;;;1.91;100.00;101744.69;10320350;28;20051;-70
2024/01/19 15:30:58;;;;;;;5.57;2.60;;;;;;;1.80;100.00;101751.34;10298711;28;20039;-70
2024/01/19 15:35:59;;;;;;;6.50;2.83;;;;;;;1.73;100.00;101747.63;10315626;28;20043;-69
2024/01/19 15:40:59;;;;;;;6.63;2.42;;;;;;;1.69;100.00;101753.59;10292209;28;20054;-70
2024/01/19 15:46:00;;;;;;;7.30;3.88;;;;;;;1.46;100.00;101748.06;10286683;28;20091;-70
2024/01/19 15:51:00;;;;;;;7.07;3.40;;;;;;;1.33;100.00;101764.88;10293861;28;20053;-70
2024/01/19 15:56:00;;;;;;;8.37;3.53;;;;;;;1.20;100.00;101766.25;10289889;28;20043;-69
2024/01/19 16:01:01;;;;;;;9.70;3.72;;;;;;;1.09;100.00;101773.88;10300804;28;20035;-67
2024/01/19 16:06:07;;;;;;;9.83;3.47;;;;;;;1.00;100.00;101778.44;10308814;28;22092;-70
2024/01/19 16:11:10;;;;;;;10.38;4.53;;;;;;;0.82;100.00;101777.75;10310882;28;20046;-69
2024/01/19 16:16:10;;;;;;;9.37;4.67;;;;;;;0.88;100.00;101802.31;10312344;28;20413;-69
2024/01/19 16:21:21;;;;;;;7.50;3.27;;;;;;;0.77;100.00;101798.06;10299513;28;20047;-70
2024/01/19 16:26:23;;;;;;;9.40;3.97;;;;;;;0.74;100.00;101808.41;10295275;28;20034;-70
2024/01/19 16:31:24;;;;;;;12.90;3.37;;;;;;;0.59;100.00;101822.59;10309941;28;20054;-73
2024/01/19 16:36:24;;;;;;;13.13;3.67;;;;;;;0.56;100.00;101830.22;10313010;28;20046;-73
2024/01/19 16:41:25;;;;;;;7.05;2.90;;;;;;;0.53;100.00;101827.84;10306627;28;20387;-70
2024/01/19 16:46:26;;;;;;;8.37;3.23;;;;;;;0.41;100.00;101835.41;10300869;28;20039;-69
2024/01/19 16:51:26;;;;;;;5.32;3.88;;;;;;;0.32;100.00;101830.97;10299126;28;20043;-70
2024/01/19 16:56:28;;;;;;;9.27;3.43;;;;;;;0.23;100.00;101826.53;10313148;28;20077;-71
2024/01/19 17:01:30;;;;;;;7.63;3.40;;;;;;;0.23;100.00;101831.94;10304443;28;20052;-70
2024/01/19 17:06:31;;;;;;;7.35;3.88;;;;;;;0.19;100.00;101835.00;10304504;28;20062;-71
2024/01/19 17:11:31;;;;;;;12.57;3.50;;;;;;;0.24;100.00;101833.66;10293716;28;20105;-71
2024/01/19 17:16:32;;;;;;;10.13;3.07;;;;;;;0.23;100.00;101840.06;10318723;28;20050;-73
2024/01/19 17:21:33;;;;;;;5.77;2.80;;;;;;;0.18;100.00;101849.53;10302750;28;20038;-72
2024/01/19 17:26:34;;;;;;;10.15;4.20;;;;;;;0.17;100.00;101852.41;10306332;28;20512;-71
2024/01/19 17:31:34;;;;;;;14.53;5.63;;;;;;;0.16;100.00;101859.66;10322689;28;20054;-72
2024/01/19 17:36:35;;;;;;;11.35;5.50;;;;;;;0.17;100.00;101866.81;10325159;28;20541;-71
2024/01/19 17:41:39;;;;;;;5.00;2.67;;;;;;;0.20;100.00;101871.03;10316143;28;20061;-71
2024/01/19 17:46:40;;;;;;;4.47;2.67;;;;;;;0.19;100.00;101877.47;10316240;28;20128;-73
2024/01/19 17:51:41;;;;;;;8.48;3.45;;;;;;;0.15;100.00;101879.66;10325825;28;20065;-71
2024/01/19 17:56:42;;;;;;;8.13;3.92;;;;;;;0.15;100.00;101890.50;10339804;28;20413;-71
2024/01/19 18:01:45;;;;;;;8.87;3.27;;;;;;;0.09;100.00;101884.88;10322575;28;20045;-70
2024/01/19 18:06:46;;;;;;;7.83;2.80;;;;;;;0.07;100.00;101903.97;10287167;28;20061;-70
2024/01/19 18:11:48;;;;;;;5.90;3.43;;;;;;;-0.12;100.00;101882.56;10319552;28;20046;-71
2024/01/19 18:16:49;;;;;;;8.40;3.77;;;;;;;-0.02;100.00;101918.50;10319453;28;20046;-71
2024/01/19 18:21:50;;;;;;;7.07;2.77;;;;;;;0.07;100.00;101925.63;10318825;28;20045;-70
2024/01/19 18:26:51;;;;;;;7.35;2.70;;;;;;;0.18;100.00;101932.63;10320629;28;20419;-71
2024/01/19 18:31:51;;;;;;;5.00;2.77;;;;;;;0.25;100.00;101925.59;10324847;28;20034;-71
2024/01/19 18:36:52;;;;;;;6.30;3.00;;;;;;;0.34;100.00;101948.16;10318843;28;20059;-70
2024/01/19 18:41:52;;;;;;;11.43;2.83;;;;;;;0.30;100.00;101952.19;10324455;28;20045;-70
2024/01/19 18:46:53;;;;;;;5.03;2.93;;;;;;;0.25;100.00;101949.09;10302139;28;20043;-74
2024/01/19 18:51:53;;;;;;;12.07;3.60;;;;;;;0.20;100.00;101963.97;10312896;28;20502;-71
2024/01/19 18:56:53;;;;;;;9.20;3.20;;;;;;;0.25;100.00;101954.50;10315426;28;20406;-71
2024/01/19 19:01:54;;;;;;;6.13;2.93;;;;;;;0.34;100.00;101964.41;10312012;28;20046;-70
2024/01/19 19:06:54;;;;;;;7.57;3.10;;;;;;;0.38;100.00;101971.19;10315773;28;20518;-71
2024/01/19 19:11:58;;;;;;;11.70;3.47;;;;;;;0.28;100.00;101975.88;10307919;28;20041;-73
2024/01/19 19:16:59;;;;;;;8.57;3.17;;;;;;;0.19;100.00;101980.38;10327158;28;20041;-71
2024/01/19 19:22:00;;;;;;;5.23;3.17;;;;;;;0.10;100.00;101990.28;10319384;28;20037;-72
2024/01/19 19:27:01;;;;;;;7.73;2.73;;;;;;;0.02;100.00;101987.53;10306687;28;20043;-74
2024/01/19 19:32:02;;;;;;;11.10;3.83;;;;;;;-0.05;100.00;101986.47;10317462;28;20432;-73
2024/01/19 19:37:03;;;;;;;5.97;3.70;;;;;;;-0.09;100.00;101991.34;10317951;28;20046;-73
2024/01/19 19:42:03;;;;;;;7.77;3.03;;;;;;;-0.02;100.00;101997.00;10312711;28;20042;-73
2024/01/19 19:47:05;;;;;;;9.30;3.30;;;;;;;-0.01;100.00;101993.28;10314365;28;20053;-72
2024/01/19 19:52:05;;;;;;;5.60;3.00;;;;;;;-0.04;100.00;101983.59;10312463;28;20110;-73
2024/01/19 19:57:07;;;;;;;6.10;3.50;;;;;;;0.01;100.00;101990.41;10314108;28;20038;-73
2024/01/19 20:02:07;;;;;;;5.57;2.77;;;;;;;0.01;100.00;101985.00;10319174;28;20035;-73
2024/01/19 20:07:08;;;;;;;11.40;3.58;;;;;;;0.08;100.00;101984.19;10312993;28;20042;-73
2024/01/19 20:12:08;;;;;;;3.93;2.80;;;;;;;0.13;100.00;101989.16;10311949;28;20066;-70
2024/01/19 20:17:09;;;;;;;4.30;3.07;;;;;;;0.17;100.00;101985.13;10312094;28;20043;-70
2024/01/19 20:22:09;;;;;;;8.37;3.03;;;;;;;0.15;100.00;102001.50;10315685;28;20054;-73
2024/01/19 20:27:10;;;;;;;8.83;3.30;;;;;;;0.18;100.00;101987.66;10310374;28;20227;-73
2024/01/19 20:32:10;;;;;;;6.07;3.13;;;;;;;0.18;100.00;101997.63;10326198;28;20054;-73
2024/01/19 20:37:11;;;;;;;7.23;3.80;;;;;;;0.13;100.00;101999.97;10313069;28;20411;-73
2024/01/19 20:42:11;;;;;;;9.88;3.45;;;;;;;0.00;100.00;102013.94;10327919;28;20112;-72
2024/01/19 20:47:12;;;;;;;8.75;4.25;;;;;;;-0.16;100.00;102011.09;10331194;28;20490;-73
2024/01/19 20:52:12;;;;;;;9.50;4.10;;;;;;;-0.24;100.00;102010.00;10314614;28;20034;-73
2024/01/19 20:57:13;;;;;;;4.57;3.50;;;;;;;-0.12;100.00;102023.31;10316048;28;20104;-72
2024/01/19 21:02:14;;;;;;;8.80;4.30;;;;;;;-0.03;100.00;102019.66;10316603;28;20145;-73
2024/01/19 21:07:14;;;;;;;4.68;4.07;;;;;;;-0.08;100.00;102008.44;10287784;28;20050;-72
2024/01/19 21:12:14;;;;;;;8.47;4.00;;;;;;;-0.07;100.00;102023.66;10317088;28;20030;-73
2024/01/19 21:17:15;;;;;;;4.77;4.10;;;;;;;-0.14;100.00;102030.72;10295960;28;20483;-72
2024/01/19 21:22:15;;;;;;;8.40;4.33;;;;;;;-0.19;100.00;102041.16;10317333;28;20054;-73
2024/01/19 21:27:16;;;;;;;14.07;4.53;;;;;;;-0.11;100.00;102043.94;10322115;28;20046;-73
2024/01/19 21:32:16;;;;;;;10.77;3.80;;;;;;;-0.19;100.00;102038.44;10323797;28;20150;-73
2024/01/19 21:37:18;;;;;;;5.43;4.27;;;;;;;-0.18;100.00;102051.00;10318694;28;20038;-73
2024/01/19 21:42:19;;;;;;;9.10;4.00;;;;;;;-0.27;100.00;102053.63;10325761;28;20486;-73
2024/01/19 21:47:19;;;;;;;8.33;4.40;;;;;;;-0.35;100.00;102048.13;10318887;28;20094;-74
2024/01/19 21:52:20;;;;;;;9.87;4.83;;;;;;;-0.38;100.00;102051.13;10313794;28;20045;-70
2024/01/19 21:57:21;;;;;;;6.97;3.80;;;;;;;-0.30;100.00;102053.06;10302363;28;20057;-72
2024/01/19 22:02:21;;;;;;;6.17;4.03;;;;;;;-0.21;100.00;102057.53;10323075;28;20050;-73
2024/01/19 22:07:22;;;;;;;11.77;4.33;;;;;;;-0.15;100.00;102061.50;10310700;28;20077;-73
2024/01/19 22:12:22;;;;;;;4.63;3.63;;;;;;;-0.07;100.00;102073.25;10313105;28;20042;-73
2024/01/19 22:17:24;;;;;;;4.77;3.50;;;;;;;-0.04;100.00;102066.69;10317675;28;20039;-70
2024/01/19 22:22:25;;;;;;;7.40;4.50;;;;;;;0.02;100.00;102082.28;10314304;28;20043;-71
2024/01/19 22:27:26;;;;;;;7.00;4.10;;;;;;;0.03;100.00;102089.41;10321073;28;20031;-72
2024/01/19 22:32:26;;;;;;;13.33;5.00;;;;;;;0.05;100.00;102090.13;10328608;28;20041;-71
2024/01/19 22:37:27;;;;;;;9.53;4.17;;;;;;;0.00;100.00;102103.28;10321480;28;20092;-72
2024/01/19 22:42:27;;;;;;;8.37;4.30;;;;;;;-0.07;100.00;102113.00;10323972;28;20054;-71
2024/01/19 22:47:28;;;;;;;14.17;4.87;;;;;;;-0.10;100.00;102113.31;10287500;28;20042;-71